sensor_id;sensor_type;location;lat;lon;timestamp;pressure;altitude;pressure_sealevel;temperature;humidity
76195;BME280;64964;48.694;21.206;2023-08-20T00:01:25;98367.94;;;23.69;62.40
76195;BME280;64964;48.694;21.206;2023-08-20T00:03:51;98360.81;;;23.63;62.54
76195;BME280;64964;48.694;21.206;2023-08-20T00:06:17;98363.44;;;23.58;62.66
76195;BME280;64964;48.694;21.206;2023-08-20T00:08:43;98354.75;;;23.56;62.64
76195;BME280;64964;48.694;21.206;2023-08-20T00:11:08;98349.81;;;23.53;62.62
76195;BME280;64964;48.694;21.206;2023-08-20T00:13:35;98342.97;;;23.45;63.17
76195;BME280;64964;48.694;21.206;2023-08-20T00:16:00;98338.53;;;23.39;62.97
76195;BME280;64964;48.694;21.206;2023-08-20T00:18:26;98345.41;;;23.47;62.66
76195;BME280;64964;48.694;21.206;2023-08-20T00:20:53;98345.16;;;23.48;63.15
76195;BME280;64964;48.694;21.206;2023-08-20T00:23:18;98344.34;;;23.48;62.94
76195;BME280;64964;48.694;21.206;2023-08-20T00:25:44;98333.16;;;23.39;62.73
76195;BME280;64964;48.694;21.206;2023-08-20T00:28:09;98342.13;;;23.45;63.11
76195;BME280;64964;48.694;21.206;2023-08-20T00:30:35;98340.50;;;23.44;63.22
76195;BME280;64964;48.694;21.206;2023-08-20T00:33:00;98345.09;;;23.43;63.30
76195;BME280;64964;48.694;21.206;2023-08-20T00:35:26;98337.00;;;23.43;63.05
76195;BME280;64964;48.694;21.206;2023-08-20T00:37:51;98331.84;;;23.42;63.08
76195;BME280;64964;48.694;21.206;2023-08-20T00:40:17;98332.06;;;23.40;63.06
76195;BME280;64964;48.694;21.206;2023-08-20T00:42:42;98316.53;;;23.30;63.67
76195;BME280;64964;48.694;21.206;2023-08-20T00:45:08;98323.91;;;23.35;63.66
76195;BME280;64964;48.694;21.206;2023-08-20T00:47:34;98329.03;;;23.36;63.08
76195;BME280;64964;48.694;21.206;2023-08-20T00:50:01;98325.53;;;23.36;63.43
76195;BME280;64964;48.694;21.206;2023-08-20T00:52:30;98322.59;;;23.38;63.17
76195;BME280;64964;48.694;21.206;2023-08-20T00:54:56;98313.75;;;23.25;63.09
76195;BME280;64964;48.694;21.206;2023-08-20T00:57:23;98327.41;;;23.35;63.40
76195;BME280;64964;48.694;21.206;2023-08-20T00:59:50;98315.47;;;23.31;63.21
76195;BME280;64964;48.694;21.206;2023-08-20T01:02:18;98326.03;;;23.33;63.29
76195;BME280;64964;48.694;21.206;2023-08-20T01:04:45;98322.28;;;23.34;63.42
76195;BME280;64964;48.694;21.206;2023-08-20T01:07:30;98326.78;;;23.28;64.51
76195;BME280;64964;48.694;21.206;2023-08-20T01:10:21;98273.59;;;22.95;64.62
76195;BME280;64964;48.694;21.206;2023-08-20T01:12:49;98321.25;;;23.23;63.68
76195;BME280;64964;48.694;21.206;2023-08-20T01:15:16;98329.03;;;23.20;63.78
76195;BME280;64964;48.694;21.206;2023-08-20T01:17:42;98328.94;;;23.15;63.86
76195;BME280;64964;48.694;21.206;2023-08-20T01:20:11;98328.84;;;23.09;64.43
76195;BME280;64964;48.694;21.206;2023-08-20T01:30:35;98321.88;;;22.85;64.66
76195;BME280;64964;48.694;21.206;2023-08-20T01:33:01;98331.59;;;22.86;64.79
76195;BME280;64964;48.694;21.206;2023-08-20T01:35:28;98331.84;;;22.84;65.08
76195;BME280;64964;48.694;21.206;2023-08-20T01:37:53;98336.09;;;22.80;64.83
76195;BME280;64964;48.694;21.206;2023-08-20T01:40:19;98323.81;;;22.73;64.89
76195;BME280;64964;48.694;21.206;2023-08-20T01:42:44;98330.00;;;22.73;64.84
76195;BME280;64964;48.694;21.206;2023-08-20T01:45:09;98334.25;;;22.69;64.73
76195;BME280;64964;48.694;21.206;2023-08-20T01:47:36;98337.53;;;22.71;64.89
76195;BME280;64964;48.694;21.206;2023-08-20T01:50:01;98331.81;;;22.68;65.35
76195;BME280;64964;48.694;21.206;2023-08-20T01:52:27;98330.72;;;22.69;65.13
76195;BME280;64964;48.694;21.206;2023-08-20T01:54:54;98331.00;;;22.67;65.21
76195;BME280;64964;48.694;21.206;2023-08-20T01:57:20;98324.91;;;22.60;65.58
76195;BME280;64964;48.694;21.206;2023-08-20T01:59:46;98325.16;;;22.58;65.73
76195;BME280;64964;48.694;21.206;2023-08-20T02:02:12;98327.75;;;22.53;65.70
76195;BME280;64964;48.694;21.206;2023-08-20T02:04:37;98319.78;;;22.47;65.92
76195;BME280;64964;48.694;21.206;2023-08-20T02:07:02;98324.13;;;22.48;65.47
76195;BME280;64964;48.694;21.206;2023-08-20T02:09:28;98318.38;;;22.44;66.21
76195;BME280;64964;48.694;21.206;2023-08-20T02:11:53;98329.97;;;22.45;66.19
76195;BME280;64964;48.694;21.206;2023-08-20T02:14:19;98320.25;;;22.44;66.21
76195;BME280;64964;48.694;21.206;2023-08-20T02:16:46;98312.53;;;22.35;65.99
76195;BME280;64964;48.694;21.206;2023-08-20T02:19:11;98324.84;;;22.43;65.85
76195;BME280;64964;48.694;21.206;2023-08-20T02:21:38;98317.56;;;22.44;65.72
76195;BME280;64964;48.694;21.206;2023-08-20T02:24:04;98320.84;;;22.46;65.76
76195;BME280;64964;48.694;21.206;2023-08-20T02:26:29;98324.22;;;22.53;65.89
76195;BME280;64964;48.694;21.206;2023-08-20T02:28:54;98316.03;;;22.48;65.68
76195;BME280;64964;48.694;21.206;2023-08-20T02:31:20;98316.28;;;22.46;65.89
76195;BME280;64964;48.694;21.206;2023-08-20T02:33:45;98329.50;;;22.48;65.82
76195;BME280;64964;48.694;21.206;2023-08-20T02:36:10;98323.78;;;22.44;65.94
76195;BME280;64964;48.694;21.206;2023-08-20T02:38:36;98326.16;;;22.41;65.59
76195;BME280;64964;48.694;21.206;2023-08-20T02:41:01;98324.72;;;22.38;66.00
76195;BME280;64964;48.694;21.206;2023-08-20T02:43:29;98317.03;;;22.30;65.86
76195;BME280;64964;48.694;21.206;2023-08-20T02:45:55;98316.22;;;22.18;66.32
76195;BME280;64964;48.694;21.206;2023-08-20T02:48:20;98311.53;;;22.13;66.25
76195;BME280;64964;48.694;21.206;2023-08-20T02:50:46;98324.91;;;22.20;65.91
76195;BME280;64964;48.694;21.206;2023-08-20T02:53:11;98324.03;;;22.19;66.53
76195;BME280;64964;48.694;21.206;2023-08-20T02:55:37;98331.31;;;22.19;66.24
76195;BME280;64964;48.694;21.206;2023-08-20T02:58:02;98332.13;;;22.19;66.30
76195;BME280;64964;48.694;21.206;2023-08-20T03:00:35;98324.91;;;22.20;66.49
76195;BME280;64964;48.694;21.206;2023-08-20T03:03:01;98324.03;;;22.19;66.26
76195;BME280;64964;48.694;21.206;2023-08-20T03:05:29;98324.28;;;22.18;66.59
76195;BME280;64964;48.694;21.206;2023-08-20T03:07:54;98304.50;;;22.00;66.27
76195;BME280;64964;48.694;21.206;2023-08-20T03:10:19;98317.97;;;22.12;66.39
76195;BME280;64964;48.694;21.206;2023-08-20T03:12:45;98328.50;;;22.13;66.73
76195;BME280;64964;48.694;21.206;2023-08-20T03:15:10;98323.81;;;22.09;66.98
76195;BME280;64964;48.694;21.206;2023-08-20T03:17:36;98328.38;;;22.08;66.70
76195;BME280;64964;48.694;21.206;2023-08-20T03:20:01;98323.22;;;22.07;66.85
76195;BME280;64964;48.694;21.206;2023-08-20T03:22:28;98329.66;;;22.06;66.59
76195;BME280;64964;48.694;21.206;2023-08-20T03:24:53;98332.34;;;22.06;66.66
76195;BME280;64964;48.694;21.206;2023-08-20T03:27:19;98320.75;;;22.05;67.10
76195;BME280;64964;48.694;21.206;2023-08-20T03:29:45;98328.03;;;22.05;67.23
76195;BME280;64964;48.694;21.206;2023-08-20T03:32:11;98327.22;;;22.04;66.97
76195;BME280;64964;48.694;21.206;2023-08-20T03:34:36;98322.88;;;22.03;67.23
76195;BME280;64964;48.694;21.206;2023-08-20T03:37:02;98334.22;;;22.05;66.76
76195;BME280;64964;48.694;21.206;2023-08-20T03:39:28;98331.28;;;22.07;66.81
76195;BME280;64964;48.694;21.206;2023-08-20T03:41:53;98335.63;;;22.08;66.77
76195;BME280;64964;48.694;21.206;2023-08-20T03:44:19;98333.97;;;22.07;67.00
76195;BME280;64964;48.694;21.206;2023-08-20T03:46:45;98340.34;;;22.12;67.04
76195;BME280;64964;48.694;21.206;2023-08-20T03:49:10;98336.34;;;22.15;66.55
76195;BME280;64964;48.694;21.206;2023-08-20T03:51:35;98342.34;;;22.17;66.71
76195;BME280;64964;48.694;21.206;2023-08-20T03:54:01;98340.00;;;22.21;66.67
76195;BME280;64964;48.694;21.206;2023-08-20T03:56:27;98345.38;;;22.21;66.75
76195;BME280;64964;48.694;21.206;2023-08-20T03:58:52;98343.03;;;22.24;66.53
76195;BME280;64964;48.694;21.206;2023-08-20T04:01:19;98334.25;;;22.17;66.53
76195;BME280;64964;48.694;21.206;2023-08-20T04:03:48;98356.00;;;22.27;66.38
76195;BME280;64964;48.694;21.206;2023-08-20T04:06:14;98351.78;;;22.31;66.40
76195;BME280;64964;48.694;21.206;2023-08-20T04:08:39;98367.25;;;22.36;66.15
76195;BME280;64964;48.694;21.206;2023-08-20T04:11:05;98354.47;;;22.31;66.51
76195;BME280;64964;48.694;21.206;2023-08-20T04:13:30;98366.31;;;22.42;66.54
76195;BME280;64964;48.694;21.206;2023-08-20T04:15:56;98360.81;;;22.37;66.38
76195;BME280;64964;48.694;21.206;2023-08-20T04:18:21;98366.06;;;22.44;66.81
76195;BME280;64964;48.694;21.206;2023-08-20T04:20:49;98357.16;;;22.43;66.33
76195;BME280;64964;48.694;21.206;2023-08-20T04:23:15;98368.53;;;22.45;66.50
76195;BME280;64964;48.694;21.206;2023-08-20T04:25:40;98371.56;;;22.49;66.42
76195;BME280;64964;48.694;21.206;2023-08-20T04:28:06;98367.34;;;22.53;66.51
76195;BME280;64964;48.694;21.206;2023-08-20T04:30:31;98373.88;;;22.57;66.71
76195;BME280;64964;48.694;21.206;2023-08-20T04:32:57;98369.19;;;22.64;66.78
76195;BME280;64964;48.694;21.206;2023-08-20T04:35:22;98371.03;;;22.75;66.67
76195;BME280;64964;48.694;21.206;2023-08-20T04:37:47;98369.25;;;22.93;66.38
76195;BME280;64964;48.694;21.206;2023-08-20T04:40:13;98349.88;;;23.07;66.49
76195;BME280;64964;48.694;21.206;2023-08-20T04:42:38;98346.94;;;23.26;65.85
76195;BME280;64964;48.694;21.206;2023-08-20T04:45:04;98369.28;;;23.67;65.55
76195;BME280;64964;48.694;21.206;2023-08-20T04:47:29;98375.41;;;23.96;65.12
76195;BME280;64964;48.694;21.206;2023-08-20T04:49:55;98366.88;;;24.21;64.26
76195;BME280;64964;48.694;21.206;2023-08-20T04:52:20;98374.41;;;24.57;63.68
76195;BME280;64964;48.694;21.206;2023-08-20T04:54:47;98369.06;;;24.84;62.63
76195;BME280;64964;48.694;21.206;2023-08-20T04:57:12;98376.28;;;25.23;62.29
76195;BME280;64964;48.694;21.206;2023-08-20T04:59:38;98380.66;;;25.56;60.90
76195;BME280;64964;48.694;21.206;2023-08-20T05:02:03;98378.25;;;25.92;60.41
76195;BME280;64964;48.694;21.206;2023-08-20T05:04:28;98380.94;;;26.24;59.52
76195;BME280;64964;48.694;21.206;2023-08-20T05:06:54;98392.56;;;26.62;58.87
76195;BME280;64964;48.694;21.206;2023-08-20T05:09:20;98383.19;;;26.95;58.03
76195;BME280;64964;48.694;21.206;2023-08-20T05:11:46;98392.53;;;27.29;57.04
76195;BME280;64964;48.694;21.206;2023-08-20T05:14:11;98385.78;;;27.63;56.22
76195;BME280;64964;48.694;21.206;2023-08-20T05:16:36;98392.91;;;27.94;56.24
76195;BME280;64964;48.694;21.206;2023-08-20T05:19:02;98389.06;;;28.31;54.63
76195;BME280;64964;48.694;21.206;2023-08-20T05:21:27;98395.81;;;28.64;53.89
76195;BME280;64964;48.694;21.206;2023-08-20T05:23:53;98385.34;;;28.92;53.24
76195;BME280;64964;48.694;21.206;2023-08-20T05:26:18;98394.41;;;29.32;52.77
76195;BME280;64964;48.694;21.206;2023-08-20T05:28:43;98391.47;;;29.67;51.71
76195;BME280;64964;48.694;21.206;2023-08-20T05:31:09;98376.88;;;29.87;50.91
76195;BME280;64964;48.694;21.206;2023-08-20T05:33:35;98394.50;;;30.29;50.13
76195;BME280;64964;48.694;21.206;2023-08-20T05:36:01;98399.34;;;30.61;49.55
76195;BME280;64964;48.694;21.206;2023-08-20T05:38:26;98403.41;;;30.88;48.82
76195;BME280;64964;48.694;21.206;2023-08-20T05:40:51;98409.31;;;31.19;48.05
76195;BME280;64964;48.694;21.206;2023-08-20T05:43:17;98404.81;;;31.47;47.77
76195;BME280;64964;48.694;21.206;2023-08-20T05:45:42;98415.16;;;31.69;46.62
76195;BME280;64964;48.694;21.206;2023-08-20T05:48:08;98407.66;;;31.93;46.25
76195;BME280;64964;48.694;21.206;2023-08-20T05:50:33;98408.88;;;32.20;45.88
76195;BME280;64964;48.694;21.206;2023-08-20T05:52:58;98405.09;;;32.48;45.38
76195;BME280;64964;48.694;21.206;2023-08-20T05:55:24;98403.47;;;32.75;44.50
76195;BME280;64964;48.694;21.206;2023-08-20T05:57:49;98400.44;;;33.04;44.12
76195;BME280;64964;48.694;21.206;2023-08-20T06:00:15;98414.38;;;33.30;43.36
76195;BME280;64964;48.694;21.206;2023-08-20T06:02:43;98411.28;;;33.59;42.45
76195;BME280;64964;48.694;21.206;2023-08-20T06:05:08;98415.47;;;33.79;42.05
76195;BME280;64964;48.694;21.206;2023-08-20T06:07:34;98411.00;;;34.06;41.69
76195;BME280;64964;48.694;21.206;2023-08-20T06:09:59;98421.00;;;34.33;41.06
76195;BME280;64964;48.694;21.206;2023-08-20T06:12:25;98423.09;;;34.58;40.83
76195;BME280;64964;48.694;21.206;2023-08-20T06:14:50;98425.38;;;34.65;40.16
76195;BME280;64964;48.694;21.206;2023-08-20T06:17:15;98427.66;;;34.72;39.95
76195;BME280;64964;48.694;21.206;2023-08-20T06:19:41;98424.38;;;34.61;39.48
76195;BME280;64964;48.694;21.206;2023-08-20T06:22:06;98431.28;;;34.50;39.59
76195;BME280;64964;48.694;21.206;2023-08-20T06:24:32;98426.00;;;34.31;39.46
76195;BME280;64964;48.694;21.206;2023-08-20T06:26:57;98426.47;;;34.02;40.09
76195;BME280;64964;48.694;21.206;2023-08-20T06:29:22;98420.38;;;33.68;40.80
76195;BME280;64964;48.694;21.206;2023-08-20T06:31:48;98426.97;;;33.45;40.90
76195;BME280;64964;48.694;21.206;2023-08-20T06:34:14;98430.13;;;33.25;41.33
76195;BME280;64964;48.694;21.206;2023-08-20T06:36:40;98429.44;;;33.05;41.73
76195;BME280;64964;48.694;21.206;2023-08-20T06:39:05;98421.50;;;32.90;41.83
76195;BME280;64964;48.694;21.206;2023-08-20T06:41:31;98424.78;;;32.78;42.23
76195;BME280;64964;48.694;21.206;2023-08-20T06:43:56;98423.56;;;32.70;42.20
76195;BME280;64964;48.694;21.206;2023-08-20T06:46:21;98420.72;;;32.62;42.09
76195;BME280;64964;48.694;21.206;2023-08-20T06:48:47;98416.97;;;32.44;41.87
76195;BME280;64964;48.694;21.206;2023-08-20T06:51:19;98403.50;;;32.29;41.36
76195;BME280;64964;48.694;21.206;2023-08-20T06:53:45;98433.44;;;32.39;42.63
76195;BME280;64964;48.694;21.206;2023-08-20T06:56:11;98425.41;;;32.29;41.95
76195;BME280;64964;48.694;21.206;2023-08-20T06:58:38;98435.13;;;32.21;42.17
76195;BME280;64964;48.694;21.206;2023-08-20T07:01:04;98433.66;;;32.10;42.34
76195;BME280;64964;48.694;21.206;2023-08-20T07:03:33;98438.19;;;32.01;42.89
76195;BME280;64964;48.694;21.206;2023-08-20T07:05:59;98439.69;;;31.93;42.58
76195;BME280;64964;48.694;21.206;2023-08-20T07:08:25;98436.28;;;31.82;42.62
76195;BME280;64964;48.694;21.206;2023-08-20T07:10:50;98447.22;;;31.82;43.03
76195;BME280;64964;48.694;21.206;2023-08-20T07:13:16;98444.03;;;31.75;43.11
76195;BME280;64964;48.694;21.206;2023-08-20T07:15:41;98450.31;;;31.75;42.79
76195;BME280;64964;48.694;21.206;2023-08-20T07:18:06;98445.97;;;31.74;42.67
76195;BME280;64964;48.694;21.206;2023-08-20T07:20:32;98446.28;;;31.73;43.03
76195;BME280;64964;48.694;21.206;2023-08-20T07:22:57;98443.53;;;31.73;43.40
76195;BME280;64964;48.694;21.206;2023-08-20T07:25:22;98447.66;;;31.70;42.98
76195;BME280;64964;48.694;21.206;2023-08-20T07:27:48;98444.72;;;31.67;43.00
76195;BME280;64964;48.694;21.206;2023-08-20T07:30:13;98441.53;;;31.60;43.02
76195;BME280;64964;48.694;21.206;2023-08-20T07:32:38;98446.41;;;31.63;42.84
76195;BME280;64964;48.694;21.206;2023-08-20T07:35:04;98440.44;;;31.61;42.89
76195;BME280;64964;48.694;21.206;2023-08-20T07:37:30;98446.72;;;31.61;43.36
76195;BME280;64964;48.694;21.206;2023-08-20T07:39:55;98448.66;;;31.61;43.08
76195;BME280;64964;48.694;21.206;2023-08-20T07:42:20;98436.69;;;31.57;43.22
76195;BME280;64964;48.694;21.206;2023-08-20T07:44:46;98447.53;;;31.62;43.40
76195;BME280;64964;48.694;21.206;2023-08-20T07:47:11;98442.28;;;31.65;43.32
76195;BME280;64964;48.694;21.206;2023-08-20T07:49:37;98443.09;;;31.66;43.11
76195;BME280;64964;48.694;21.206;2023-08-20T07:52:03;98439.16;;;31.72;42.81
76195;BME280;64964;48.694;21.206;2023-08-20T07:54:28;98434.72;;;31.76;43.00
76195;BME280;64964;48.694;21.206;2023-08-20T07:56:54;98431.72;;;31.78;43.07
76195;BME280;64964;48.694;21.206;2023-08-20T07:59:19;98443.16;;;31.80;42.98
76195;BME280;64964;48.694;21.206;2023-08-20T08:01:45;98441.16;;;31.85;42.90
76195;BME280;64964;48.694;21.206;2023-08-20T08:04:10;98437.34;;;31.86;43.14
76195;BME280;64964;48.694;21.206;2023-08-20T08:06:35;98438.38;;;31.90;42.94
76195;BME280;64964;48.694;21.206;2023-08-20T08:09:21;98433.19;;;31.89;42.56
76195;BME280;64964;48.694;21.206;2023-08-20T08:11:47;98434.88;;;32.04;43.11
76195;BME280;64964;48.694;21.206;2023-08-20T08:14:13;98438.91;;;32.06;43.13
76195;BME280;64964;48.694;21.206;2023-08-20T08:16:39;98432.84;;;32.09;42.71
76195;BME280;64964;48.694;21.206;2023-08-20T08:19:04;98439.66;;;32.12;43.02
76195;BME280;64964;48.694;21.206;2023-08-20T08:21:29;98442.88;;;32.14;43.17
76195;BME280;64964;48.694;21.206;2023-08-20T08:23:55;98432.16;;;32.17;43.29
76195;BME280;64964;48.694;21.206;2023-08-20T08:26:20;98434.31;;;32.20;43.47
76195;BME280;64964;48.694;21.206;2023-08-20T08:28:45;98426.91;;;32.21;43.34
76195;BME280;64964;48.694;21.206;2023-08-20T08:31:11;98418.59;;;32.26;42.72
76195;BME280;64964;48.694;21.206;2023-08-20T08:33:36;98433.53;;;32.34;42.93
76195;BME280;64964;48.694;21.206;2023-08-20T08:36:02;98438.41;;;32.37;42.88
76195;BME280;64964;48.694;21.206;2023-08-20T08:38:27;98429.06;;;32.38;42.73
76195;BME280;64964;48.694;21.206;2023-08-20T08:40:52;98437.84;;;32.40;42.73
76195;BME280;64964;48.694;21.206;2023-08-20T08:43:18;98440.75;;;32.43;42.99
76195;BME280;64964;48.694;21.206;2023-08-20T08:45:46;98435.00;;;32.45;43.47
76195;BME280;64964;48.694;21.206;2023-08-20T08:48:14;98435.69;;;32.51;42.71
76195;BME280;64964;48.694;21.206;2023-08-20T08:50:39;98432.97;;;32.51;42.33
76195;BME280;64964;48.694;21.206;2023-08-20T08:53:05;98427.00;;;32.48;42.58
76195;BME280;64964;48.694;21.206;2023-08-20T08:55:31;98434.78;;;32.55;42.84
76195;BME280;64964;48.694;21.206;2023-08-20T08:57:56;98439.34;;;32.60;42.78
76195;BME280;64964;48.694;21.206;2023-08-20T09:00:22;98441.19;;;32.64;42.87
76195;BME280;64964;48.694;21.206;2023-08-20T09:02:47;98442.19;;;32.68;42.48
76195;BME280;64964;48.694;21.206;2023-08-20T09:05:13;98438.16;;;32.66;42.15
76195;BME280;64964;48.694;21.206;2023-08-20T09:07:44;98433.97;;;32.68;42.21
76195;BME280;64964;48.694;21.206;2023-08-20T09:10:12;98442.41;;;32.72;42.44
76195;BME280;64964;48.694;21.206;2023-08-20T09:12:37;98435.00;;;32.72;42.06
76195;BME280;64964;48.694;21.206;2023-08-20T09:15:10;98423.34;;;32.67;41.26
76195;BME280;64964;48.694;21.206;2023-08-20T09:17:35;98445.78;;;32.83;42.14
76195;BME280;64964;48.694;21.206;2023-08-20T09:20:01;98442.91;;;32.88;42.32
76195;BME280;64964;48.694;21.206;2023-08-20T09:22:26;98444.84;;;32.87;41.94
76195;BME280;64964;48.694;21.206;2023-08-20T09:24:54;98424.34;;;32.85;41.90
76195;BME280;64964;48.694;21.206;2023-08-20T09:27:20;98440.72;;;33.04;42.19
76195;BME280;64964;48.694;21.206;2023-08-20T09:29:53;98438.19;;;33.07;42.23
76195;BME280;64964;48.694;21.206;2023-08-20T09:32:26;98452.97;;;33.20;41.95
76195;BME280;64964;48.694;21.206;2023-08-20T09:34:53;98447.88;;;33.27;42.21
76195;BME280;64964;48.694;21.206;2023-08-20T09:37:23;98444.72;;;33.34;41.93
76195;BME280;64964;48.694;21.206;2023-08-20T09:39:49;98444.13;;;33.37;41.90
76195;BME280;64964;48.694;21.206;2023-08-20T09:42:15;98446.22;;;33.40;41.43
76195;BME280;64964;48.694;21.206;2023-08-20T09:44:43;98425.94;;;33.27;41.75
76195;BME280;64964;48.694;21.206;2023-08-20T09:47:10;98448.09;;;33.44;41.47
76195;BME280;64964;48.694;21.206;2023-08-20T09:49:47;98442.88;;;33.43;40.54
76195;BME280;64964;48.694;21.206;2023-08-20T09:52:25;98441.69;;;33.49;41.18
76195;BME280;64964;48.694;21.206;2023-08-20T09:55:09;98436.81;;;33.46;40.97
76195;BME280;64964;48.694;21.206;2023-08-20T09:57:36;98436.41;;;33.53;41.24
76195;BME280;64964;48.694;21.206;2023-08-20T10:00:06;98436.28;;;33.58;41.66
76195;BME280;64964;48.694;21.206;2023-08-20T10:02:35;98428.06;;;33.58;41.11
76195;BME280;64964;48.694;21.206;2023-08-20T10:05:00;98437.16;;;33.67;41.43
76195;BME280;64964;48.694;21.206;2023-08-20T10:07:29;98439.78;;;33.72;41.29
76195;BME280;64964;48.694;21.206;2023-08-20T10:10:02;98438.34;;;33.75;41.09
76195;BME280;64964;48.694;21.206;2023-08-20T10:12:28;98431.94;;;33.79;41.13
76195;BME280;64964;48.694;21.206;2023-08-20T10:14:56;98433.22;;;33.82;40.69
76195;BME280;64964;48.694;21.206;2023-08-20T10:17:23;98429.38;;;33.83;40.26
76195;BME280;64964;48.694;21.206;2023-08-20T10:19:48;98424.38;;;33.85;40.61
76195;BME280;64964;48.694;21.206;2023-08-20T10:22:14;98426.81;;;33.86;40.31
76195;BME280;64964;48.694;21.206;2023-08-20T10:24:51;98425.69;;;33.87;39.23
76195;BME280;64964;48.694;21.206;2023-08-20T10:27:27;98424.13;;;33.95;40.37
76195;BME280;64964;48.694;21.206;2023-08-20T10:29:54;98423.84;;;33.97;39.70
76195;BME280;64964;48.694;21.206;2023-08-20T10:32:20;98418.56;;;34.00;40.17
76195;BME280;64964;48.694;21.206;2023-08-20T10:34:52;98420.03;;;34.06;40.28
76195;BME280;64964;48.694;21.206;2023-08-20T10:37:26;98421.72;;;34.16;40.63
76195;BME280;64964;48.694;21.206;2023-08-20T10:39:54;98416.28;;;34.25;40.61
76195;BME280;64964;48.694;21.206;2023-08-20T10:45:07;98406.78;;;34.31;37.80
76195;BME280;64964;48.694;21.206;2023-08-20T10:47:45;98405.31;;;34.25;38.23
76195;BME280;64964;48.694;21.206;2023-08-20T10:50:17;98406.59;;;34.27;39.58
76195;BME280;64964;48.694;21.206;2023-08-20T10:52:54;98388.31;;;34.23;39.38
76195;BME280;64964;48.694;21.206;2023-08-20T10:55:23;98399.56;;;34.43;38.56
76195;BME280;64964;48.694;21.206;2023-08-20T10:57:57;98395.03;;;34.39;36.32
76195;BME280;64964;48.694;21.206;2023-08-20T11:00:24;98391.28;;;34.35;36.76
76195;BME280;64964;48.694;21.206;2023-08-20T11:02:52;98400.81;;;34.29;37.91
76195;BME280;64964;48.694;21.206;2023-08-20T11:05:19;98400.31;;;34.35;38.38
76195;BME280;64964;48.694;21.206;2023-08-20T11:07:47;98390.81;;;34.33;38.66
76195;BME280;64964;48.694;21.206;2023-08-20T11:10:16;98398.34;;;34.50;37.39
76195;BME280;64964;48.694;21.206;2023-08-20T11:12:44;98395.63;;;34.58;38.34
76195;BME280;64964;48.694;21.206;2023-08-20T11:15:10;98397.78;;;34.70;38.52
76195;BME280;64964;48.694;21.206;2023-08-20T11:17:45;98391.97;;;34.80;37.56
76195;BME280;64964;48.694;21.206;2023-08-20T11:20:13;98388.78;;;34.96;37.32
76195;BME280;64964;48.694;21.206;2023-08-20T11:22:39;98389.13;;;35.03;37.23
76195;BME280;64964;48.694;21.206;2023-08-20T11:25:10;98388.69;;;35.09;36.15
76195;BME280;64964;48.694;21.206;2023-08-20T11:27:36;98386.91;;;35.05;36.65
76195;BME280;64964;48.694;21.206;2023-08-20T11:30:03;98384.16;;;35.05;36.51
76195;BME280;64964;48.694;21.206;2023-08-20T11:32:30;98394.53;;;35.25;37.39
76195;BME280;64964;48.694;21.206;2023-08-20T11:34:56;98386.91;;;35.39;37.26
76195;BME280;64964;48.694;21.206;2023-08-20T11:37:21;98391.63;;;35.56;36.55
76195;BME280;64964;48.694;21.206;2023-08-20T11:39:48;98381.59;;;35.69;36.02
76195;BME280;64964;48.694;21.206;2023-08-20T11:42:14;98383.38;;;35.91;36.05
76195;BME280;64964;48.694;21.206;2023-08-20T11:44:44;98381.16;;;36.31;34.84
76195;BME280;64964;48.694;21.206;2023-08-20T11:47:15;98374.56;;;36.71;34.31
76195;BME280;64964;48.694;21.206;2023-08-20T11:49:40;98373.34;;;37.10;32.93
76195;BME280;64964;48.694;21.206;2023-08-20T11:52:06;98368.88;;;37.47;32.96
76195;BME280;64964;48.694;21.206;2023-08-20T11:54:31;98362.09;;;37.78;32.35
76195;BME280;64964;48.694;21.206;2023-08-20T11:57:02;98339.72;;;37.92;31.53
76195;BME280;64964;48.694;21.206;2023-08-20T11:59:28;98361.44;;;38.26;31.56
76195;BME280;64964;48.694;21.206;2023-08-20T12:02:02;98360.88;;;38.45;31.52
76195;BME280;64964;48.694;21.206;2023-08-20T12:04:31;98356.16;;;38.58;30.59
76195;BME280;64964;48.694;21.206;2023-08-20T12:07:09;98336.63;;;38.51;30.02
76195;BME280;64964;48.694;21.206;2023-08-20T12:09:34;98357.88;;;38.75;31.25
76195;BME280;64964;48.694;21.206;2023-08-20T12:12:00;98356.53;;;38.81;31.03
76195;BME280;64964;48.694;21.206;2023-08-20T12:14:27;98352.03;;;38.89;30.96
76195;BME280;64964;48.694;21.206;2023-08-20T12:16:55;98350.78;;;38.86;30.93
76195;BME280;64964;48.694;21.206;2023-08-20T12:19:21;98355.59;;;38.77;31.04
76195;BME280;64964;48.694;21.206;2023-08-20T12:21:46;98335.47;;;38.52;31.30
76195;BME280;64964;48.694;21.206;2023-08-20T12:24:12;98334.19;;;38.37;31.06
76195;BME280;64964;48.694;21.206;2023-08-20T12:26:38;98344.97;;;38.30;31.42
76195;BME280;64964;48.694;21.206;2023-08-20T12:29:04;98348.75;;;38.13;32.06
76195;BME280;64964;48.694;21.206;2023-08-20T12:31:31;98346.41;;;37.91;32.02
76195;BME280;64964;48.694;21.206;2023-08-20T12:33:57;98352.41;;;37.72;31.79
76195;BME280;64964;48.694;21.206;2023-08-20T12:36:22;98338.84;;;37.46;32.47
76195;BME280;64964;48.694;21.206;2023-08-20T12:38:47;98340.34;;;37.22;32.62
76195;BME280;64964;48.694;21.206;2023-08-20T12:41:13;98342.44;;;37.04;32.69
76195;BME280;64964;48.694;21.206;2023-08-20T12:43:38;98340.09;;;36.85;33.28
76195;BME280;64964;48.694;21.206;2023-08-20T12:46:03;98334.19;;;36.66;33.09
76195;BME280;64964;48.694;21.206;2023-08-20T12:48:29;98337.53;;;36.51;33.16
76195;BME280;64964;48.694;21.206;2023-08-20T12:50:55;98335.94;;;36.32;33.14
76195;BME280;64964;48.694;21.206;2023-08-20T12:53:21;98326.00;;;36.10;33.43
76195;BME280;64964;48.694;21.206;2023-08-20T12:55:46;98328.47;;;35.86;34.52
76195;BME280;64964;48.694;21.206;2023-08-20T12:58:12;98325.31;;;35.66;34.44